createdAt,value
2022-08-28T14:01:17.916Z,22.45
2022-08-28T14:06:24.831Z,22.48
2022-08-28T14:11:34.653Z,22.27
2022-08-28T14:23:29.463Z,22.58
2022-08-28T14:35:42.893Z,22.91
2022-08-28T14:40:45.251Z,22.88
2022-08-28T14:52:09.019Z,23.19
2022-08-28T14:57:12.130Z,23.38
2022-08-28T15:02:14.493Z,23.36
2022-08-28T15:13:37.986Z,23.21
2022-08-28T15:18:41.150Z,22.35
2022-08-28T15:30:05.188Z,20.83
2022-08-28T15:35:07.713Z,20.44
2022-08-28T15:40:29.342Z,20.53
2022-08-28T15:45:31.631Z,20.58
2022-08-28T15:50:33.927Z,20.60
2022-08-28T15:55:36.934Z,20.79
2022-08-28T16:00:39.282Z,20.78
2022-08-28T16:05:41.607Z,20.68
2022-08-28T16:10:49.401Z,20.77
2022-08-28T16:15:52.449Z,20.98
2022-08-28T16:20:54.680Z,20.85
2022-08-28T16:25:57.017Z,21.01
2022-08-28T16:31:02.465Z,20.99
2022-08-28T16:36:09.452Z,21.18
2022-08-28T16:41:17.341Z,21.03
2022-08-28T16:46:24.953Z,21.22
2022-08-28T16:51:27.343Z,21.54
2022-08-28T16:56:55.059Z,21.35
2022-08-28T17:01:57.477Z,21.42
2022-08-28T17:06:59.764Z,21.47
2022-08-28T17:12:02.619Z,21.48
2022-08-28T17:23:27.662Z,21.58
2022-08-28T17:28:30.160Z,21.35
2022-08-28T17:33:33.603Z,21.27
2022-08-28T17:38:36.035Z,21.48
2022-08-28T17:43:39.112Z,21.27
2022-08-28T17:48:41.616Z,21.18
2022-08-28T17:54:46.578Z,21.19
2022-08-28T17:59:48.821Z,21.31
2022-08-28T18:04:51.247Z,21.47
2022-08-28T18:09:53.812Z,21.41
2022-08-28T18:14:58.166Z,21.52
2022-08-28T18:20:00.872Z,21.43
2022-08-28T18:25:04.607Z,21.31
2022-08-28T18:30:07.183Z,21.37
2022-08-28T18:35:09.483Z,21.45
2022-08-28T18:40:11.989Z,21.59
2022-08-28T18:45:15.654Z,21.57
2022-08-28T18:50:26.118Z,21.46
2022-08-28T18:55:29.422Z,21.52
2022-08-28T19:00:33.178Z,21.52
2022-08-28T19:06:06.389Z,21.47
2022-08-28T19:11:09.976Z,21.28
2022-08-28T19:16:17.191Z,20.98
2022-08-28T19:21:20.333Z,21.08
2022-08-28T19:26:22.766Z,21.17
2022-08-28T19:31:25.661Z,21.09
2022-08-28T19:36:30.273Z,20.95
2022-08-28T19:41:33.230Z,21.01
2022-08-28T19:53:28.570Z,21.10
2022-08-28T19:58:30.993Z,20.96
2022-08-28T20:03:36.455Z,20.92
2022-08-28T20:15:12.597Z,20.84
2022-08-28T20:20:19.111Z,21.00
2022-08-28T20:25:21.818Z,20.92
2022-08-28T20:30:24.112Z,20.89
2022-08-28T20:35:27.614Z,20.79
2022-08-28T20:40:30.207Z,20.78
2022-08-28T20:45:32.710Z,20.88
2022-08-28T20:50:35.794Z,20.81
2022-08-28T20:55:38.641Z,20.80
2022-08-28T21:00:42.301Z,20.75
2022-08-28T21:06:17.079Z,20.68
2022-08-28T21:11:19.617Z,20.80
2022-08-28T21:22:43.315Z,20.68
2022-08-28T21:27:46.035Z,20.63
2022-08-28T21:32:51.260Z,20.69
2022-08-28T21:37:55.255Z,20.61
2022-08-28T21:49:52.495Z,20.54
2022-08-28T21:54:58.597Z,20.61
2022-08-28T22:21:00.374Z,20.62
2022-08-28T22:26:14.155Z,20.51
2022-08-28T22:31:16.572Z,20.52
2022-08-28T22:36:21.666Z,20.77
2022-08-28T22:41:25.463Z,20.55
2022-08-28T22:46:28.930Z,20.61
2022-08-28T22:51:33.896Z,20.64
2022-08-28T22:56:36.619Z,20.67
2022-08-28T23:01:39.150Z,20.57
2022-08-28T23:13:47.893Z,20.56
2022-08-28T23:19:08.183Z,20.52
2022-08-28T23:24:13.130Z,20.46
2022-08-28T23:29:15.523Z,20.47
2022-08-28T23:41:11.211Z,20.36
2022-08-28T23:46:17.764Z,20.51
2022-08-28T23:51:42.961Z,20.30
2022-08-28T23:56:45.762Z,20.30
